Time;durP1;ratioP1;P1;durP2;ratioP2;P2;SDS_P1;SDS_P2;PMS_P1;PMS_P2;Temp;Humidity;BMP_temperature;BMP_pressure;BME280_temperature;BME280_humidity;BME280_pressure;Samples;Min_cycle;Max_cycle;Signal;HPM_P1;HPM_P2
2022/05/21 00:01:38;;;;;;;5.53;5.03;;;;;;;;;;4920189;29;20508;-79
2022/05/21 00:04:05;;;;;;;5.70;5.20;;;;;;;;;;4915360;29;20854;-79
2022/05/21 00:06:31;;;;;;;5.70;4.83;;;;;;;;;;4907756;29;20900;-79
2022/05/21 00:08:58;;;;;;;4.83;4.43;;;;;;;;;;4917226;29;20496;-79
2022/05/21 00:11:25;;;;;;;5.63;4.77;;;;;;;;;;4916307;29;20536;-79
2022/05/21 00:13:51;;;;;;;5.20;4.70;;;;;;;;;;4921947;29;21244;-79
2022/05/21 00:16:19;;;;;;;4.70;4.30;;;;;;;;;;4936085;29;20534;-79
2022/05/21 00:18:46;;;;;;;5.23;4.83;;;;;;;;;;4926628;29;20455;-79
2022/05/21 00:21:13;;;;;;;5.40;4.20;;;;;;;;;;4910237;29;20469;-79
2022/05/21 00:23:40;;;;;;;5.13;4.53;;;;;;;;;;4919041;29;20453;-79
2022/05/21 00:26:07;;;;;;;4.20;3.80;;;;;;;;;;4917706;29;20445;-79
2022/05/21 00:28:34;;;;;;;4.53;4.13;;;;;;;;;;4917241;29;20476;-79
2022/05/21 00:31:01;;;;;;;4.73;3.80;;;;;;;;;;4920349;29;20488;-79
2022/05/21 00:33:30;;;;;;;4.50;3.80;;;;;;;;;;4924307;29;20810;-79
2022/05/21 00:35:56;;;;;;;8.60;4.00;;;;;;;;;;4916226;29;20445;-79
2022/05/21 00:38:23;;;;;;;7.77;3.70;;;;;;;;;;4899646;29;20457;-79
2022/05/21 00:40:50;;;;;;;4.93;3.70;;;;;;;;;;4917392;29;20536;-79
2022/05/21 00:43:38;;;;;;;7.97;4.43;;;;;;;;;;4917637;29;20453;-79
2022/05/21 00:46:05;;;;;;;4.73;4.20;;;;;;;;;;4916448;29;20444;-79
2022/05/21 00:48:34;;;;;;;4.50;4.10;;;;;;;;;;4915765;29;20839;-79
2022/05/21 00:51:01;;;;;;;4.60;4.20;;;;;;;;;;4928043;29;20848;-79
2022/05/21 00:53:28;;;;;;;4.97;4.47;;;;;;;;;;4934501;29;20452;-79
2022/05/21 00:55:55;;;;;;;4.03;3.43;;;;;;;;;;4921501;29;20881;-79
2022/05/21 01:01:08;;;;;;;5.00;3.73;;;;;;;;;;4923993;29;20822;-79
2022/05/21 01:03:36;;;;;;;4.60;4.17;;;;;;;;;;4939043;29;20574;-79
2022/05/21 01:06:03;;;;;;;4.30;3.90;;;;;;;;;;4947159;29;20440;-79
2022/05/21 01:08:30;;;;;;;4.17;3.87;;;;;;;;;;4917464;29;20468;-79
2022/05/21 01:10:58;;;;;;;5.07;3.43;;;;;;;;;;4935447;29;20448;-79
2022/05/21 01:13:26;;;;;;;4.30;3.90;;;;;;;;;;4933267;29;20895;-79
2022/05/21 01:15:54;;;;;;;3.93;3.53;;;;;;;;;;4932841;29;20440;-79
2022/05/21 01:18:21;;;;;;;4.07;3.43;;;;;;;;;;4934966;29;20469;-79
2022/05/21 01:20:49;;;;;;;5.17;3.07;;;;;;;;;;4930035;29;20466;-79
2022/05/21 01:23:18;;;;;;;5.00;3.47;;;;;;;;;;4954699;29;20447;-79
2022/05/21 01:25:45;;;;;;;7.30;3.70;;;;;;;;;;4936201;29;20453;-79
2022/05/21 01:28:13;;;;;;;5.23;3.03;;;;;;;;;;4923654;29;20464;-79
2022/05/21 01:30:41;;;;;;;3.77;3.20;;;;;;;;;;4953079;29;20522;-79
2022/05/21 01:33:11;;;;;;;3.77;3.37;;;;;;;;;;4917042;29;20452;-79
2022/05/21 01:35:39;;;;;;;3.50;3.20;;;;;;;;;;4935057;29;20503;-79
2022/05/21 01:38:05;;;;;;;6.50;3.73;;;;;;;;;;4918593;29;20469;-79
2022/05/21 01:40:34;;;;;;;4.63;3.83;;;;;;;;;;4953947;29;20502;-79
2022/05/21 01:45:44;;;;;;;4.13;3.50;;;;;;;;;;4919390;29;20464;-79
2022/05/21 01:48:11;;;;;;;3.57;3.27;;;;;;;;;;4922729;29;20500;-79
2022/05/21 01:50:38;;;;;;;3.37;3.07;;;;;;;;;;4929450;29;21034;-79
2022/05/21 01:53:05;;;;;;;3.80;3.50;;;;;;;;;;4934502;29;20443;-79
2022/05/21 01:55:32;;;;;;;3.97;3.57;;;;;;;;;;4917596;29;20452;-79
2022/05/21 01:58:00;;;;;;;4.93;3.13;;;;;;;;;;4935708;29;20447;-79
2022/05/21 02:00:27;;;;;;;3.57;3.27;;;;;;;;;;4934994;29;20436;-79
2022/05/21 02:02:53;;;;;;;3.43;3.13;;;;;;;;;;4917817;29;20475;-79
2022/05/21 02:05:20;;;;;;;3.50;3.20;;;;;;;;;;4934929;29;20983;-79
2022/05/21 02:07:46;;;;;;;3.70;3.40;;;;;;;;;;4916953;29;20448;-79
2022/05/21 02:10:13;;;;;;;3.73;3.43;;;;;;;;;;4933702;29;20488;-79
2022/05/21 02:12:40;;;;;;;3.53;3.23;;;;;;;;;;4917245;29;20456;-79
2022/05/21 02:15:09;;;;;;;2.93;2.73;;;;;;;;;;4921113;29;20560;-79
2022/05/21 02:17:35;;;;;;;3.87;3.27;;;;;;;;;;4931395;29;20613;-79
2022/05/21 02:20:02;;;;;;;4.20;2.83;;;;;;;;;;4917578;29;20455;-79
2022/05/21 02:22:28;;;;;;;3.80;3.50;;;;;;;;;;4911714;29;20452;-79
2022/05/21 02:24:55;;;;;;;3.80;3.50;;;;;;;;;;4933779;29;20467;-79
2022/05/21 02:27:21;;;;;;;3.70;3.10;;;;;;;;;;4933821;29;20543;-79
2022/05/21 02:29:48;;;;;;;4.20;3.40;;;;;;;;;;4917188;29;20479;-79
2022/05/21 02:32:17;;;;;;;3.90;3.50;;;;;;;;;;4932547;29;20448;-79
2022/05/21 02:34:43;;;;;;;3.50;3.20;;;;;;;;;;4937498;29;20842;-79
2022/05/21 02:39:54;;;;;;;4.17;3.70;;;;;;;;;;4917400;29;20451;-78
2022/05/21 02:45:05;;;;;;;3.70;3.40;;;;;;;;;;4927998;29;20452;-78
2022/05/21 02:47:33;;;;;;;3.50;3.20;;;;;;;;;;4933142;29;20540;-79
2022/05/21 02:49:59;;;;;;;3.40;3.10;;;;;;;;;;4933890;29;20470;-79
2022/05/21 02:52:26;;;;;;;4.30;3.10;;;;;;;;;;4939134;29;20468;-78
2022/05/21 02:54:53;;;;;;;4.63;3.07;;;;;;;;;;4934174;29;20570;-79
2022/05/21 02:57:19;;;;;;;3.37;2.97;;;;;;;;;;4916580;29;20452;-78
2022/05/21 02:59:48;;;;;;;3.87;3.50;;;;;;;;;;4917198;29;20581;-78
2022/05/21 03:02:15;;;;;;;4.00;3.70;;;;;;;;;;4950701;29;20538;-79
2022/05/21 03:04:43;;;;;;;3.70;3.40;;;;;;;;;;4934246;29;20578;-79
2022/05/21 03:07:09;;;;;;;3.53;3.23;;;;;;;;;;4933753;29;20531;-78
2022/05/21 03:12:20;;;;;;;4.40;4.00;;;;;;;;;;4944823;29;20444;-79
2022/05/21 03:14:46;;;;;;;4.03;3.63;;;;;;;;;;4915572;29;20487;-78
2022/05/21 03:17:13;;;;;;;4.20;3.80;;;;;;;;;;4916083;29;20459;-78
2022/05/21 03:19:40;;;;;;;4.43;4.03;;;;;;;;;;4907300;29;20893;-78
2022/05/21 03:22:08;;;;;;;4.97;4.57;;;;;;;;;;4952386;28;20467;-78
2022/05/21 03:24:35;;;;;;;4.17;3.77;;;;;;;;;;4949543;29;20451;-78
2022/05/21 03:27:01;;;;;;;4.70;4.30;;;;;;;;;;4930303;29;20862;-78
2022/05/21 03:29:40;;;;;;;5.00;4.00;;;;;;;;;;4930883;29;20576;-78
2022/05/21 03:32:08;;;;;;;4.43;4.03;;;;;;;;;;4916466;29;20456;-79
2022/05/21 03:34:36;;;;;;;4.53;4.13;;;;;;;;;;4932858;29;20511;-78
2022/05/21 03:37:02;;;;;;;4.80;4.40;;;;;;;;;;4916853;29;20500;-79
2022/05/21 03:39:30;;;;;;;4.90;4.40;;;;;;;;;;4945559;29;20514;-78
2022/05/21 03:41:57;;;;;;;4.63;4.07;;;;;;;;;;4912159;29;21041;-79
2022/05/21 03:44:25;;;;;;;4.37;4.03;;;;;;;;;;4915588;29;20535;-79
2022/05/21 03:46:53;;;;;;;4.43;4.03;;;;;;;;;;4900215;29;20918;-79
2022/05/21 03:49:23;;;;;;;4.40;4.00;;;;;;;;;;4938370;29;20490;-79
2022/05/21 03:51:49;;;;;;;5.40;4.90;;;;;;;;;;4935311;29;20522;-79
2022/05/21 03:54:19;;;;;;;4.67;4.27;;;;;;;;;;4936867;29;20452;-78
2022/05/21 03:56:47;;;;;;;4.53;4.13;;;;;;;;;;4914303;29;20457;-78
2022/05/21 03:59:13;;;;;;;5.17;4.30;;;;;;;;;;4931886;29;20460;-78
2022/05/21 04:01:41;;;;;;;5.30;3.97;;;;;;;;;;4927271;29;20464;-78
2022/05/21 04:04:07;;;;;;;4.87;4.00;;;;;;;;;;4911121;29;20566;-78
2022/05/21 04:06:34;;;;;;;5.10;4.60;;;;;;;;;;4915836;29;20799;-78
2022/05/21 04:09:00;;;;;;;4.70;4.07;;;;;;;;;;4937559;29;20456;-78
2022/05/21 04:11:27;;;;;;;4.33;3.93;;;;;;;;;;4935257;29;20515;-78
2022/05/21 04:13:55;;;;;;;5.80;3.90;;;;;;;;;;4933400;29;20511;-79
2022/05/21 04:16:22;;;;;;;6.37;4.07;;;;;;;;;;4913452;29;20463;-78
2022/05/21 04:18:49;;;;;;;4.77;3.90;;;;;;;;;;4939956;29;20852;-78
2022/05/21 04:21:16;;;;;;;4.10;3.77;;;;;;;;;;4932600;29;20464;-78
2022/05/21 04:23:42;;;;;;;4.40;4.00;;;;;;;;;;4916344;29;20616;-78
2022/05/21 04:26:09;;;;;;;3.97;3.67;;;;;;;;;;4938388;29;20551;-78
2022/05/21 04:28:35;;;;;;;4.47;4.07;;;;;;;;;;4916528;29;20805;-78
2022/05/21 04:31:03;;;;;;;3.97;3.50;;;;;;;;;;4932974;29;20460;-79
2022/05/21 04:33:30;;;;;;;5.40;4.20;;;;;;;;;;4916429;29;20447;-78
2022/05/21 04:38:41;;;;;;;4.60;4.20;;;;;;;;;;4949291;29;20785;-77
2022/05/21 04:41:08;;;;;;;4.17;3.77;;;;;;;;;;4936468;29;20526;-79
2022/05/21 04:43:34;;;;;;;3.97;3.63;;;;;;;;;;4937577;29;20786;-79
2022/05/21 04:46:01;;;;;;;4.43;3.83;;;;;;;;;;4945094;29;20815;-79
2022/05/21 04:48:28;;;;;;;4.40;3.70;;;;;;;;;;4918902;29;20945;-79
2022/05/21 04:50:58;;;;;;;4.03;3.63;;;;;;;;;;4918149;29;20534;-79
2022/05/21 04:53:25;;;;;;;3.80;3.37;;;;;;;;;;4935778;29;20456;-79
2022/05/21 04:55:51;;;;;;;4.40;4.00;;;;;;;;;;4937862;29;20507;-79
2022/05/21 04:58:18;;;;;;;4.47;3.87;;;;;;;;;;4917363;29;20542;-76
2022/05/21 05:00:44;;;;;;;3.90;3.50;;;;;;;;;;4932141;29;20713;-76
2022/05/21 05:03:12;;;;;;;3.90;3.60;;;;;;;;;;4916107;29;20449;-77
2022/05/21 05:05:40;;;;;;;4.17;3.77;;;;;;;;;;4918814;29;20815;-76
2022/05/21 05:08:07;;;;;;;4.10;3.67;;;;;;;;;;4916574;29;20472;-76
2022/05/21 05:10:34;;;;;;;4.43;3.80;;;;;;;;;;4934356;29;20975;-76
2022/05/21 05:13:01;;;;;;;3.63;3.33;;;;;;;;;;4919349;29;20461;-76
2022/05/21 05:15:27;;;;;;;5.30;3.37;;;;;;;;;;4935850;29;20480;-76
2022/05/21 05:17:58;;;;;;;3.60;3.30;;;;;;;;;;4933535;29;20440;-76
2022/05/21 05:20:25;;;;;;;4.03;3.63;;;;;;;;;;4934779;29;20558;-76
2022/05/21 05:22:53;;;;;;;3.30;3.00;;;;;;;;;;4913930;29;20806;-76
2022/05/21 05:25:19;;;;;;;4.40;3.83;;;;;;;;;;4918717;29;20962;-76
2022/05/21 05:27:46;;;;;;;4.77;3.60;;;;;;;;;;4918147;29;20444;-76
2022/05/21 05:30:15;;;;;;;3.63;3.33;;;;;;;;;;4935086;29;20451;-74
2022/05/21 05:32:41;;;;;;;3.60;2.93;;;;;;;;;;4917620;29;20452;-74
2022/05/21 05:35:08;;;;;;;4.10;3.80;;;;;;;;;;4918466;29;20475;-74
2022/05/21 05:37:35;;;;;;;3.87;3.57;;;;;;;;;;4917490;29;20450;-74
2022/05/21 05:40:03;;;;;;;4.40;3.13;;;;;;;;;;4932380;29;20493;-75
2022/05/21 05:42:29;;;;;;;3.87;3.10;;;;;;;;;;4904046;29;20465;-75
2022/05/21 05:44:56;;;;;;;3.17;2.90;;;;;;;;;;4919267;29;20467;-76
2022/05/21 05:47:22;;;;;;;3.30;3.00;;;;;;;;;;4935060;29;20991;-75
2022/05/21 05:49:49;;;;;;;3.80;2.40;;;;;;;;;;4932437;29;20474;-75
2022/05/21 05:52:16;;;;;;;2.73;2.50;;;;;;;;;;4930153;29;20515;-75
2022/05/21 05:54:42;;;;;;;3.00;2.67;;;;;;;;;;4918055;29;20468;-75
2022/05/21 05:57:11;;;;;;;3.07;2.77;;;;;;;;;;4915749;29;20448;-75
2022/05/21 05:59:48;;;;;;;2.90;2.30;;;;;;;;;;4924171;29;20562;-75
2022/05/21 06:04:59;;;;;;;2.73;2.10;;;;;;;;;;4933183;29;20483;-76
2022/05/21 06:07:25;;;;;;;2.10;1.90;;;;;;;;;;4937185;29;20992;-75
2022/05/21 06:09:52;;;;;;;2.07;1.87;;;;;;;;;;4936900;29;20466;-75
2022/05/21 06:12:19;;;;;;;3.10;1.53;;;;;;;;;;4919307;29;20498;-75
2022/05/21 06:14:46;;;;;;;1.80;1.70;;;;;;;;;;4916084;29;20958;-75
2022/05/21 06:17:13;;;;;;;2.10;1.90;;;;;;;;;;4919162;29;20957;-75
2022/05/21 06:19:39;;;;;;;5.37;1.93;;;;;;;;;;4937380;29;20461;-75
2022/05/21 06:22:06;;;;;;;3.07;2.00;;;;;;;;;;4916210;29;20731;-76
2022/05/21 06:24:34;;;;;;;3.83;2.13;;;;;;;;;;4936434;29;20559;-76
2022/05/21 06:27:01;;;;;;;3.03;2.13;;;;;;;;;;4917479;29;20447;-75
2022/05/21 06:29:29;;;;;;;2.30;2.03;;;;;;;;;;4935097;29;20456;-76
2022/05/21 06:31:55;;;;;;;1.90;1.73;;;;;;;;;;4900310;29;20450;-76
2022/05/21 06:34:22;;;;;;;2.23;1.80;;;;;;;;;;4930395;29;20463;-76
2022/05/21 06:36:48;;;;;;;2.10;1.57;;;;;;;;;;4918926;29;20782;-76
2022/05/21 06:39:15;;;;;;;2.60;1.77;;;;;;;;;;4942442;29;20499;-76
2022/05/21 06:41:42;;;;;;;2.07;1.73;;;;;;;;;;4899979;29;20465;-76
2022/05/21 06:44:09;;;;;;;2.60;1.80;;;;;;;;;;4921135;29;20456;-76
2022/05/21 06:46:37;;;;;;;2.17;1.50;;;;;;;;;;4916606;29;20467;-76
2022/05/21 06:49:04;;;;;;;2.10;1.60;;;;;;;;;;4933755;29;20863;-76
2022/05/21 06:51:30;;;;;;;2.27;1.60;;;;;;;;;;4912278;29;20481;-76
2022/05/21 06:53:57;;;;;;;2.70;1.93;;;;;;;;;;4928046;29;20456;-77
2022/05/21 06:56:23;;;;;;;5.30;1.60;;;;;;;;;;4936685;29;20495;-76
2022/05/21 06:58:51;;;;;;;1.77;1.53;;;;;;;;;;4926118;29;20805;-77
2022/05/21 07:01:18;;;;;;;2.20;1.53;;;;;;;;;;4900586;29;20456;-76
2022/05/21 07:03:46;;;;;;;2.17;1.30;;;;;;;;;;4933276;29;20482;-76
2022/05/21 07:08:56;;;;;;;10.30;1.53;;;;;;;;;;4932654;29;20553;-76
2022/05/21 07:11:23;;;;;;;2.30;1.40;;;;;;;;;;4933447;29;20437;-77
2022/05/21 07:13:54;;;;;;;2.50;1.33;;;;;;;;;;4932891;29;20480;-77
2022/05/21 07:16:20;;;;;;;1.70;1.50;;;;;;;;;;4924779;29;20456;-76
2022/05/21 07:19:04;;;;;;;1.90;1.70;;;;;;;;;;4915829;29;20454;-77
2022/05/21 07:21:32;;;;;;;1.60;1.20;;;;;;;;;;4927004;29;20478;-77
2022/05/21 07:24:01;;;;;;;1.60;1.50;;;;;;;;;;4918282;29;20455;-76
2022/05/21 07:30:18;;;;;;;1.90;1.70;;;;;;;;;;4828652;29;20468;-76
2022/05/21 07:32:45;;;;;;;1.50;1.40;;;;;;;;;;4842111;29;20506;-81
2022/05/21 07:35:13;;;;;;;1.70;1.37;;;;;;;;;;4855595;29;20436;-82
2022/05/21 07:37:41;;;;;;;1.50;1.33;;;;;;;;;;4860355;29;20555;-82
2022/05/21 07:40:08;;;;;;;1.50;1.40;;;;;;;;;;4869991;29;20470;-82
2022/05/21 07:42:36;;;;;;;2.07;1.27;;;;;;;;;;4863348;29;20901;-81
2022/05/21 07:45:03;;;;;;;1.77;1.47;;;;;;;;;;4871045;29;20451;-81
2022/05/21 07:47:29;;;;;;;1.27;1.17;;;;;;;;;;4844044;29;20557;-81
2022/05/21 07:49:56;;;;;;;1.30;1.10;;;;;;;;;;4864075;29;20504;-81
2022/05/21 07:52:23;;;;;;;1.30;1.03;;;;;;;;;;4858499;29;20462;-81
2022/05/21 07:54:51;;;;;;;1.20;1.10;;;;;;;;;;4889609;29;20470;-81
2022/05/21 07:57:18;;;;;;;1.67;1.00;;;;;;;;;;4882958;29;20557;-82
2022/05/21 07:59:44;;;;;;;1.47;1.13;;;;;;;;;;4862639;29;20850;-81
2022/05/21 08:02:19;;;;;;;1.70;1.23;;;;;;;;;;4927289;29;20488;-82
2022/05/21 08:04:47;;;;;;;4.27;1.10;;;;;;;;;;4908047;29;20488;-82
2022/05/21 08:07:14;;;;;;;0.97;0.67;;;;;;;;;;4910524;29;21011;-82
2022/05/21 08:09:41;;;;;;;2.73;1.07;;;;;;;;;;4915426;29;20540;-82
2022/05/21 08:12:12;;;;;;;2.00;1.20;;;;;;;;;;4924017;29;20461;-82
2022/05/21 08:14:39;;;;;;;1.70;0.83;;;;;;;;;;4917991;29;20457;-82
2022/05/21 08:17:06;;;;;;;1.17;0.87;;;;;;;;;;4917011;29;20544;-82
2022/05/21 08:19:34;;;;;;;1.57;0.90;;;;;;;;;;4914657;29;20473;-82
2022/05/21 08:27:27;;;;;;;1.53;0.90;;;;;;;;;;4916126;29;20540;-82
2022/05/21 08:29:53;;;;;;;2.20;1.10;;;;;;;;;;4912037;29;20834;-82
2022/05/21 08:32:20;;;;;;;1.20;0.93;;;;;;;;;;4922012;29;20567;-83
2022/05/21 08:34:47;;;;;;;1.03;0.87;;;;;;;;;;4921046;29;20456;-82
2022/05/21 08:37:13;;;;;;;1.20;1.00;;;;;;;;;;4916102;29;20855;-82
2022/05/21 08:39:40;;;;;;;1.20;0.80;;;;;;;;;;4916128;29;20496;-82
2022/05/21 08:42:11;;;;;;;3.40;1.00;;;;;;;;;;4898317;29;20499;-82
2022/05/21 08:44:42;;;;;;;1.57;0.77;;;;;;;;;;4915894;29;20444;-82
2022/05/21 08:47:16;;;;;;;1.00;0.80;;;;;;;;;;4899219;29;20555;-82
2022/05/21 08:49:46;;;;;;;1.00;0.80;;;;;;;;;;4922224;29;20456;-82
2022/05/21 08:52:48;;;;;;;1.47;0.80;;;;;;;;;;4897532;29;20446;-82
2022/05/21 08:55:27;;;;;;;2.90;1.10;;;;;;;;;;4908720;29;20448;-83
2022/05/21 08:57:57;;;;;;;1.00;0.90;;;;;;;;;;4898270;29;20453;-83
2022/05/21 09:00:26;;;;;;;1.03;0.80;;;;;;;;;;4908832;29;20472;-82
2022/05/21 09:02:54;;;;;;;0.97;0.67;;;;;;;;;;4899630;29;20588;-82
2022/05/21 09:05:21;;;;;;;0.80;0.70;;;;;;;;;;4933202;29;20496;-82
2022/05/21 09:07:51;;;;;;;1.70;1.07;;;;;;;;;;4935347;29;20464;-82
2022/05/21 09:10:29;;;;;;;1.17;0.80;;;;;;;;;;4927860;29;20932;-82
2022/05/21 09:12:59;;;;;;;1.60;0.93;;;;;;;;;;4936065;29;20503;-82
2022/05/21 09:18:14;;;;;;;1.10;0.90;;;;;;;;;;4914016;29;20725;-81
2022/05/21 09:20:46;;;;;;;1.53;1.03;;;;;;;;;;4934994;29;20456;-82
2022/05/21 09:23:12;;;;;;;1.77;0.80;;;;;;;;;;4917747;29;20552;-82
2022/05/21 09:25:41;;;;;;;1.23;0.77;;;;;;;;;;4915815;29;20805;-82
2022/05/21 09:28:08;;;;;;;0.83;0.70;;;;;;;;;;4935931;29;20451;-82
2022/05/21 09:30:40;;;;;;;1.10;0.80;;;;;;;;;;4919317;29;20455;-82
2022/05/21 09:33:21;;;;;;;2.10;0.90;;;;;;;;;;4935609;29;20432;-82
2022/05/21 09:35:51;;;;;;;1.53;0.70;;;;;;;;;;4940364;29;20443;-76
2022/05/21 09:38:20;;;;;;;1.53;0.93;;;;;;;;;;4926227;29;20532;-75
2022/05/21 09:40:49;;;;;;;1.00;0.87;;;;;;;;;;4933585;29;20448;-75
2022/05/21 09:46:18;;;;;;;3.23;1.00;;;;;;;;;;4918302;29;20446;-75
2022/05/21 09:48:46;;;;;;;1.67;1.00;;;;;;;;;;4919579;29;20502;-75
2022/05/21 09:51:26;;;;;;;1.30;0.90;;;;;;;;;;4916790;29;20428;-80
2022/05/21 09:53:53;;;;;;;1.70;1.27;;;;;;;;;;4934882;29;20527;-81
2022/05/21 09:56:21;;;;;;;1.07;0.73;;;;;;;;;;4941169;29;20469;-80
2022/05/21 09:58:48;;;;;;;1.67;1.10;;;;;;;;;;4917270;29;20551;-80
2022/05/21 10:01:33;;;;;;;1.37;0.97;;;;;;;;;;4934146;29;20472;-79
2022/05/21 10:04:00;;;;;;;1.03;0.90;;;;;;;;;;4929017;29;20831;-81
2022/05/21 10:06:28;;;;;;;1.30;1.17;;;;;;;;;;4908585;29;20455;-80
2022/05/21 10:11:47;;;;;;;1.40;1.00;;;;;;;;;;4919093;29;20440;-80
2022/05/21 10:14:17;;;;;;;1.83;1.20;;;;;;;;;;4916177;29;20453;-80
2022/05/21 10:16:48;;;;;;;1.20;1.00;;;;;;;;;;4926216;29;20455;-80
2022/05/21 10:19:17;;;;;;;1.43;1.33;;;;;;;;;;4933866;29;20851;-80
2022/05/21 10:21:52;;;;;;;1.17;0.93;;;;;;;;;;4934553;29;20488;-80
2022/05/21 10:24:21;;;;;;;1.70;1.40;;;;;;;;;;4928687;29;20893;-79
2022/05/21 10:27:03;;;;;;;1.90;1.30;;;;;;;;;;4920262;29;20654;-79
2022/05/21 10:29:46;;;;;;;1.47;1.10;;;;;;;;;;4942354;29;20507;-79
2022/05/21 10:32:21;;;;;;;1.60;1.30;;;;;;;;;;4916086;29;20552;-79
2022/05/21 10:34:54;;;;;;;1.73;1.00;;;;;;;;;;4908414;29;20466;-79
2022/05/21 10:37:32;;;;;;;4.23;1.10;;;;;;;;;;4902375;29;20464;-79
2022/05/21 10:40:09;;;;;;;2.20;0.80;;;;;;;;;;4897623;29;20511;-79
2022/05/21 10:42:43;;;;;;;1.27;1.10;;;;;;;;;;4888947;29;20587;-79
2022/05/21 10:45:16;;;;;;;1.70;0.90;;;;;;;;;;4921939;29;20455;-79
2022/05/21 10:47:53;;;;;;;6.00;1.10;;;;;;;;;;4915942;29;20468;-78
2022/05/21 10:50:29;;;;;;;2.10;1.30;;;;;;;;;;4920308;29;21060;-79
2022/05/21 10:53:08;;;;;;;1.80;1.20;;;;;;;;;;4905161;29;20474;-79
2022/05/21 10:55:41;;;;;;;1.30;1.10;;;;;;;;;;4903558;29;20440;-76
2022/05/21 10:58:33;;;;;;;1.97;0.87;;;;;;;;;;4907553;29;20532;-78
2022/05/21 11:01:05;;;;;;;1.43;1.17;;;;;;;;;;4920738;29;20444;-76
2022/05/21 11:03:45;;;;;;;1.53;1.20;;;;;;;;;;4911909;29;20475;-76
2022/05/21 11:06:27;;;;;;;1.23;0.80;;;;;;;;;;4923832;29;20554;-76
2022/05/21 11:09:01;;;;;;;2.07;1.57;;;;;;;;;;4902856;29;20437;-76
2022/05/21 11:11:37;;;;;;;1.87;1.03;;;;;;;;;;4900933;29;20543;-76
2022/05/21 11:14:08;;;;;;;2.03;1.27;;;;;;;;;;4900844;29;20452;-76
2022/05/21 11:16:38;;;;;;;2.00;1.80;;;;;;;;;;4928700;29;20456;-76
2022/05/21 11:19:10;;;;;;;2.30;1.67;;;;;;;;;;4916101;29;20476;-76
2022/05/21 11:21:39;;;;;;;2.80;1.47;;;;;;;;;;4921219;29;20582;-76
2022/05/21 11:24:09;;;;;;;1.70;1.40;;;;;;;;;;4908327;29;21003;-76
2022/05/21 11:26:38;;;;;;;2.17;1.00;;;;;;;;;;4898274;29;20474;-76
2022/05/21 11:29:10;;;;;;;1.30;1.00;;;;;;;;;;4923082;29;20445;-76
2022/05/21 11:37:21;;;;;;;1.60;1.40;;;;;;;;;;4935551;29;20546;-76
2022/05/21 11:39:48;;;;;;;1.30;1.20;;;;;;;;;;4920105;29;20449;-76
2022/05/21 11:42:28;;;;;;;1.77;1.10;;;;;;;;;;4909557;29;20515;-76
2022/05/21 11:45:02;;;;;;;1.30;1.00;;;;;;;;;;4934900;29;20459;-76
2022/05/21 11:47:33;;;;;;;2.67;2.33;;;;;;;;;;4908871;29;20468;-76
2022/05/21 11:50:10;;;;;;;1.80;1.43;;;;;;;;;;4932988;29;20491;-75
2022/05/21 11:53:04;;;;;;;2.63;1.30;;;;;;;;;;4910169;29;20725;-75
2022/05/21 11:55:32;;;;;;;2.27;1.23;;;;;;;;;;4927323;29;20460;-77
2022/05/21 11:57:59;;;;;;;1.80;1.47;;;;;;;;;;4922136;29;20927;-77
2022/05/21 12:00:40;;;;;;;3.40;1.10;;;;;;;;;;4920477;29;20507;-77
2022/05/21 12:03:14;;;;;;;1.80;1.20;;;;;;;;;;4914195;29;20486;-77
2022/05/21 12:06:06;;;;;;;1.37;0.90;;;;;;;;;;4934093;29;20447;-77
2022/05/21 12:08:39;;;;;;;2.70;1.40;;;;;;;;;;4918660;29;20781;-77
2022/05/21 12:11:09;;;;;;;1.77;1.20;;;;;;;;;;4917290;29;20440;-77
2022/05/21 12:13:50;;;;;;;2.10;1.37;;;;;;;;;;4920321;29;20457;-78
2022/05/21 12:16:35;;;;;;;1.50;1.20;;;;;;;;;;4932960;29;20544;-77
2022/05/21 12:19:53;;;;;;;1.90;1.30;;;;;;;;;;4924540;29;20495;-77
2022/05/21 12:22:33;;;;;;;1.80;1.13;;;;;;;;;;4842463;29;20478;-77
2022/05/21 12:25:02;;;;;;;1.40;0.90;;;;;;;;;;4928915;29;20526;-77
2022/05/21 12:27:29;;;;;;;1.50;1.17;;;;;;;;;;4938203;29;20659;-77
2022/05/21 12:29:58;;;;;;;1.60;1.00;;;;;;;;;;4934804;29;20452;-77
2022/05/21 12:32:26;;;;;;;4.00;1.27;;;;;;;;;;4930877;29;20462;-77
2022/05/21 12:35:12;;;;;;;2.70;1.13;;;;;;;;;;4928545;29;20515;-77
2022/05/21 12:37:41;;;;;;;1.30;1.20;;;;;;;;;;4919232;29;21162;-77
2022/05/21 12:40:13;;;;;;;2.53;1.00;;;;;;;;;;4918922;29;20499;-77
2022/05/21 12:42:43;;;;;;;1.50;1.00;;;;;;;;;;4936522;29;20535;-77
2022/05/21 12:45:11;;;;;;;1.67;1.00;;;;;;;;;;4935752;29;20673;-77
2022/05/21 12:47:40;;;;;;;1.73;1.43;;;;;;;;;;4913165;29;20496;-77
2022/05/21 12:50:14;;;;;;;1.90;1.50;;;;;;;;;;4915950;29;20467;-77
2022/05/21 12:52:44;;;;;;;3.20;1.20;;;;;;;;;;4910593;29;20484;-77
2022/05/21 12:55:25;;;;;;;2.60;1.30;;;;;;;;;;4917085;29;20508;-77
2022/05/21 12:57:53;;;;;;;2.70;1.37;;;;;;;;;;4919538;29;20447;-77
2022/05/21 13:00:20;;;;;;;2.67;1.37;;;;;;;;;;4926732;29;20837;-76
2022/05/21 13:02:48;;;;;;;2.37;1.20;;;;;;;;;;4930433;29;20488;-77
2022/05/21 13:05:19;;;;;;;1.37;1.17;;;;;;;;;;4922254;29;20480;-77
2022/05/21 13:07:46;;;;;;;2.30;1.10;;;;;;;;;;4922580;29;20952;-76
2022/05/21 13:10:19;;;;;;;1.73;1.10;;;;;;;;;;4916542;29;20475;-77
2022/05/21 13:12:49;;;;;;;1.20;0.97;;;;;;;;;;4925630;29;20840;-77
2022/05/21 13:15:19;;;;;;;1.50;1.30;;;;;;;;;;4911408;29;20820;-77
2022/05/21 13:17:48;;;;;;;1.47;1.20;;;;;;;;;;4913976;29;20815;-77
2022/05/21 13:20:17;;;;;;;3.60;1.37;;;;;;;;;;4904543;29;20445;-77
2022/05/21 13:22:50;;;;;;;3.10;1.40;;;;;;;;;;4908860;29;20484;-76
2022/05/21 13:25:17;;;;;;;1.33;1.23;;;;;;;;;;4917999;29;20499;-76
2022/05/21 13:27:45;;;;;;;3.43;1.33;;;;;;;;;;4910367;29;20488;-76
2022/05/21 13:30:15;;;;;;;1.47;1.30;;;;;;;;;;4915752;29;20453;-77
2022/05/21 13:32:42;;;;;;;3.00;1.20;;;;;;;;;;4914173;29;20846;-77
2022/05/21 13:35:20;;;;;;;1.23;1.00;;;;;;;;;;4915335;29;20569;-77
2022/05/21 13:37:49;;;;;;;1.50;1.40;;;;;;;;;;4911867;29;20544;-76
2022/05/21 13:40:18;;;;;;;1.20;1.00;;;;;;;;;;4902934;29;20481;-77
2022/05/21 13:42:46;;;;;;;2.37;1.33;;;;;;;;;;4915196;29;20502;-76
2022/05/21 13:45:16;;;;;;;2.27;1.20;;;;;;;;;;4923516;29;20457;-76
2022/05/21 13:47:46;;;;;;;2.30;1.20;;;;;;;;;;4914655;29;20818;-77
2022/05/21 13:50:13;;;;;;;1.10;0.83;;;;;;;;;;4914400;29;20535;-76
2022/05/21 13:52:39;;;;;;;1.23;1.13;;;;;;;;;;4915650;29;20568;-76
2022/05/21 13:55:07;;;;;;;1.80;1.43;;;;;;;;;;4915065;29;20459;-76
2022/05/21 13:57:35;;;;;;;2.50;1.10;;;;;;;;;;4908460;29;20460;-75
2022/05/21 14:00:03;;;;;;;2.33;1.40;;;;;;;;;;4904565;29;20954;-75
2022/05/21 14:02:40;;;;;;;4.03;1.33;;;;;;;;;;4903069;29;20480;-75
2022/05/21 14:05:21;;;;;;;3.27;1.47;;;;;;;;;;4903906;29;20561;-75
2022/05/21 14:07:49;;;;;;;1.67;1.27;;;;;;;;;;4905227;29;20851;-75
2022/05/21 14:10:29;;;;;;;1.30;1.17;;;;;;;;;;4914025;29;20497;-75
2022/05/21 14:12:56;;;;;;;1.73;1.30;;;;;;;;;;4921909;29;21005;-75
2022/05/21 14:15:25;;;;;;;1.47;1.00;;;;;;;;;;4913516;29;20464;-79
2022/05/21 14:17:56;;;;;;;2.93;1.30;;;;;;;;;;4892212;29;20497;-79
2022/05/21 14:20:27;;;;;;;2.97;1.13;;;;;;;;;;4902181;29;20537;-79
2022/05/21 14:22:54;;;;;;;2.83;1.03;;;;;;;;;;4913375;29;20838;-78
2022/05/21 14:25:29;;;;;;;2.23;1.27;;;;;;;;;;4914255;29;20527;-78
2022/05/21 14:27:57;;;;;;;2.87;1.70;;;;;;;;;;4898432;29;20559;-78
2022/05/21 14:30:31;;;;;;;1.93;1.40;;;;;;;;;;4913185;29;20500;-78
2022/05/21 14:33:09;;;;;;;3.33;1.20;;;;;;;;;;4912779;29;20456;-80
2022/05/21 14:35:35;;;;;;;1.73;0.90;;;;;;;;;;4911657;29;20548;-79
2022/05/21 14:38:02;;;;;;;4.93;1.50;;;;;;;;;;4912725;29;20449;-79
2022/05/21 14:40:30;;;;;;;2.30;1.10;;;;;;;;;;4904096;29;20475;-80
2022/05/21 14:43:02;;;;;;;1.63;1.50;;;;;;;;;;4898122;29;20508;-79
2022/05/21 14:45:29;;;;;;;3.30;1.60;;;;;;;;;;4913971;29;20484;-79
2022/05/21 14:47:54;;;;;;;3.40;1.63;;;;;;;;;;4915527;29;20459;-78
2022/05/21 14:53:10;;;;;;;3.10;1.50;;;;;;;;;;4911390;29;20202;-80
2022/05/21 14:55:37;;;;;;;3.43;1.23;;;;;;;;;;4905121;29;20484;-80
2022/05/21 14:58:04;;;;;;;3.77;1.60;;;;;;;;;;4913034;29;20492;-80
2022/05/21 15:00:30;;;;;;;2.63;1.40;;;;;;;;;;4907000;29;20557;-80
2022/05/21 15:02:57;;;;;;;1.77;1.50;;;;;;;;;;4906741;29;20524;-80
2022/05/21 15:05:25;;;;;;;2.80;1.30;;;;;;;;;;4911512;29;20519;-80
2022/05/21 15:07:54;;;;;;;2.20;1.87;;;;;;;;;;4911471;29;20560;-80
2022/05/21 15:10:21;;;;;;;3.00;1.43;;;;;;;;;;4921939;29;20453;-80
2022/05/21 15:12:48;;;;;;;4.33;1.27;;;;;;;;;;4932855;29;20441;-80
2022/05/21 15:15:16;;;;;;;1.70;1.20;;;;;;;;;;4902456;29;20472;-79
2022/05/21 15:17:43;;;;;;;2.43;2.03;;;;;;;;;;4914623;29;20558;-78
2022/05/21 15:20:13;;;;;;;2.50;1.40;;;;;;;;;;4924519;29;20492;-80
2022/05/21 15:22:42;;;;;;;1.90;1.30;;;;;;;;;;4930206;29;20503;-80
2022/05/21 15:25:09;;;;;;;2.50;1.67;;;;;;;;;;4925060;29;20589;-80
2022/05/21 15:27:37;;;;;;;1.93;1.57;;;;;;;;;;4903205;29;20462;-79
2022/05/21 15:30:04;;;;;;;2.50;1.23;;;;;;;;;;4913551;29;20468;-79
2022/05/21 15:32:30;;;;;;;1.73;1.20;;;;;;;;;;4912648;29;20930;-79
2022/05/21 15:34:57;;;;;;;2.17;1.70;;;;;;;;;;4912461;29;20457;-79
2022/05/21 15:37:23;;;;;;;2.07;1.80;;;;;;;;;;4913973;29;20452;-79
2022/05/21 15:39:53;;;;;;;2.23;1.60;;;;;;;;;;4913283;29;20442;-79
2022/05/21 15:42:21;;;;;;;5.80;2.70;;;;;;;;;;4902484;29;20476;-79
2022/05/21 15:44:47;;;;;;;2.97;2.27;;;;;;;;;;4909168;29;20858;-79